createdAt,value
2023-02-14T00:02:18.182Z,2.61
2023-02-14T00:04:46.941Z,2.48
2023-02-14T00:07:13.489Z,2.49
2023-02-14T00:09:39.992Z,2.62
2023-02-14T00:12:07.474Z,2.63
2023-02-14T00:14:52.761Z,2.88
2023-02-14T00:17:19.293Z,2.95
2023-02-14T00:19:45.792Z,3.19
2023-02-14T00:22:12.268Z,3.10
2023-02-14T00:24:39.083Z,2.98
2023-02-14T00:27:07.893Z,2.85
2023-02-14T00:29:34.568Z,3.14
2023-02-14T00:32:01.186Z,3.18
2023-02-14T00:34:28.114Z,3.08
2023-02-14T00:36:54.668Z,2.85
2023-02-14T00:39:21.179Z,2.58
2023-02-14T00:41:47.667Z,2.32
2023-02-14T00:44:14.192Z,2.30
2023-02-14T00:46:40.695Z,2.39
2023-02-14T00:49:07.176Z,2.55
2023-02-14T00:51:33.661Z,2.47
2023-02-14T00:54:00.530Z,2.18
2023-02-14T00:56:27.008Z,2.30
2023-02-14T00:58:53.491Z,2.44
2023-02-14T01:01:20.018Z,2.18
2023-02-14T01:03:46.591Z,2.31
2023-02-14T01:06:13.089Z,2.14
2023-02-14T01:08:39.584Z,2.28
2023-02-14T01:11:17.102Z,2.19
2023-02-14T01:13:43.712Z,2.29
2023-02-14T01:16:12.211Z,2.24
2023-02-14T01:18:38.835Z,2.08
2023-02-14T01:21:14.857Z,2.08
2023-02-14T01:23:41.626Z,2.06
2023-02-14T01:26:08.129Z,2.24
2023-02-14T01:28:34.746Z,2.20
2023-02-14T01:31:11.619Z,1.98
2023-02-14T01:33:38.650Z,1.83
2023-02-14T01:36:05.258Z,1.97
2023-02-14T01:38:31.733Z,1.91
2023-02-14T01:40:58.873Z,1.94
2023-02-14T01:43:25.531Z,1.96
2023-02-14T01:45:52.079Z,2.09
2023-02-14T01:48:19.886Z,2.04
2023-02-14T01:50:46.401Z,2.00
2023-02-14T01:53:16.112Z,1.92
2023-02-14T01:55:44.369Z,1.87
2023-02-14T01:58:13.709Z,1.76
2023-02-14T02:00:58.833Z,1.80
2023-02-14T02:03:36.013Z,1.81
2023-02-14T02:06:13.053Z,1.94
2023-02-14T02:08:42.934Z,2.08
2023-02-14T02:11:09.388Z,2.18
2023-02-14T02:13:35.881Z,2.06
2023-02-14T02:16:19.344Z,2.04
2023-02-14T02:19:04.632Z,2.11
2023-02-14T02:21:48.688Z,2.06
2023-02-14T02:24:56.680Z,1.95
2023-02-14T02:27:41.810Z,1.84
2023-02-14T02:30:43.583Z,1.88
2023-02-14T02:33:46.919Z,1.92
2023-02-14T02:36:51.952Z,1.99
2023-02-14T02:39:25.914Z,1.76
2023-02-14T02:42:10.244Z,1.88
2023-02-14T02:44:50.759Z,1.79
2023-02-14T02:47:25.100Z,1.85
2023-02-14T02:50:24.100Z,2.00
2023-02-14T02:53:16.524Z,2.10
2023-02-14T02:56:21.535Z,1.88
2023-02-14T02:59:06.649Z,1.81
2023-02-14T03:01:34.889Z,1.92
2023-02-14T03:04:21.996Z,1.81
2023-02-14T03:06:48.526Z,1.91
2023-02-14T03:09:20.870Z,1.90
2023-02-14T03:12:10.488Z,1.79
2023-02-14T03:14:50.186Z,1.70
2023-02-14T03:17:30.253Z,1.54
2023-02-14T03:20:15.612Z,1.51
2023-02-14T03:23:04.764Z,1.78
2023-02-14T03:25:38.618Z,1.80
2023-02-14T03:28:14.644Z,1.55
2023-02-14T03:30:50.283Z,1.57
2023-02-14T03:33:20.817Z,1.49
2023-02-14T03:36:21.303Z,1.45
2023-02-14T03:39:06.003Z,1.45
2023-02-14T03:41:37.134Z,1.34
2023-02-14T03:44:05.175Z,1.43
2023-02-14T03:46:36.109Z,1.52
2023-02-14T03:49:05.377Z,1.65
2023-02-14T03:51:34.494Z,1.51
2023-02-14T03:54:01.633Z,1.46
2023-02-14T03:56:51.972Z,1.47
2023-02-14T03:59:23.807Z,1.37
2023-02-14T04:02:14.051Z,1.55
2023-02-14T04:04:43.161Z,1.32
2023-02-14T04:07:14.532Z,1.32
2023-02-14T04:09:41.002Z,1.23
2023-02-14T04:12:07.652Z,1.22
2023-02-14T04:14:34.134Z,1.14
2023-02-14T04:17:19.203Z,1.00
2023-02-14T04:19:45.686Z,1.04
2023-02-14T04:22:12.139Z,1.19
2023-02-14T04:24:38.626Z,1.00
2023-02-14T04:27:10.128Z,1.18
2023-02-14T04:29:44.710Z,1.31
2023-02-14T04:32:16.054Z,1.29
2023-02-14T04:34:42.592Z,1.24
2023-02-14T04:37:09.175Z,1.07
2023-02-14T04:39:35.669Z,1.09
2023-02-14T04:42:02.559Z,1.08
2023-02-14T04:44:29.044Z,1.06
2023-02-14T04:46:55.553Z,1.16
2023-02-14T04:49:22.148Z,0.95
2023-02-14T04:51:48.625Z,0.94
2023-02-14T04:54:15.112Z,0.97
2023-02-14T04:56:41.563Z,1.15
2023-02-14T04:59:08.072Z,1.12
2023-02-14T05:01:34.586Z,1.04
2023-02-14T05:04:01.061Z,0.94
2023-02-14T05:06:28.880Z,0.76
2023-02-14T05:08:56.481Z,0.79
2023-02-14T05:11:23.009Z,0.75
2023-02-14T05:13:49.574Z,0.68
2023-02-14T05:16:16.081Z,0.75
2023-02-14T05:18:42.597Z,0.63
2023-02-14T05:21:09.074Z,0.65
2023-02-14T05:23:35.542Z,0.65
2023-02-14T05:26:02.004Z,0.67
2023-02-14T05:28:28.468Z,0.85
2023-02-14T05:30:56.879Z,0.73
2023-02-14T05:33:24.203Z,0.62
2023-02-14T05:35:50.690Z,0.79
2023-02-14T05:38:17.703Z,0.82
2023-02-14T05:40:44.286Z,0.93
2023-02-14T05:43:10.952Z,0.84
2023-02-14T05:45:37.897Z,0.91
2023-02-14T05:48:06.085Z,0.91
2023-02-14T05:50:32.578Z,0.94
2023-02-14T05:52:59.094Z,0.92
2023-02-14T05:55:26.227Z,0.85
2023-02-14T05:57:52.701Z,0.92
2023-02-14T06:00:19.781Z,0.78
2023-02-14T06:02:46.513Z,0.72
2023-02-14T06:05:13.053Z,0.65
2023-02-14T06:07:39.551Z,0.65
2023-02-14T06:10:09.743Z,0.65
2023-02-14T06:12:36.068Z,0.67
2023-02-14T06:15:02.558Z,0.63
2023-02-14T06:17:29.598Z,0.66
2023-02-14T06:19:56.075Z,0.86
2023-02-14T06:22:22.543Z,0.77
2023-02-14T06:24:49.028Z,0.85
2023-02-14T06:27:15.526Z,0.82
2023-02-14T06:29:41.996Z,0.81
2023-02-14T06:32:08.582Z,0.67
2023-02-14T06:34:35.655Z,0.66
2023-02-14T06:37:02.124Z,0.50
2023-02-14T06:39:28.607Z,0.76
2023-02-14T06:41:55.065Z,0.64
2023-02-14T06:44:21.579Z,0.61
2023-02-14T06:46:48.045Z,0.71
2023-02-14T06:49:14.752Z,0.85
2023-02-14T06:51:41.217Z,0.84
2023-02-14T06:54:07.704Z,0.78
2023-02-14T06:56:34.164Z,0.77
2023-02-14T06:59:00.668Z,0.80
2023-02-14T07:01:27.176Z,0.86
2023-02-14T07:03:53.692Z,0.98
2023-02-14T07:06:20.171Z,1.20
2023-02-14T07:08:46.676Z,1.16
2023-02-14T07:11:13.153Z,1.20
2023-02-14T07:13:39.880Z,1.21
2023-02-14T07:16:06.400Z,1.20
2023-02-14T07:18:32.879Z,1.18
2023-02-14T07:20:59.667Z,1.17
2023-02-14T07:23:26.260Z,1.26
2023-02-14T07:25:52.764Z,1.46
2023-02-14T07:28:19.239Z,1.78
2023-02-14T07:30:45.906Z,1.93
2023-02-14T07:33:12.483Z,2.36
2023-02-14T07:35:38.954Z,2.72
2023-02-14T07:38:05.422Z,3.06
2023-02-14T07:40:31.906Z,3.32
2023-02-14T07:42:58.615Z,3.49
2023-02-14T07:45:25.097Z,3.68
2023-02-14T07:47:52.645Z,3.81
2023-02-14T07:50:19.785Z,4.01
2023-02-14T07:52:46.462Z,4.12
2023-02-14T07:55:12.930Z,4.22
2023-02-14T07:57:39.438Z,4.34
2023-02-14T08:00:06.465Z,4.39
2023-02-14T08:02:32.923Z,4.52
2023-02-14T08:04:59.487Z,4.53
2023-02-14T08:07:26.014Z,4.61
2023-02-14T08:09:52.472Z,4.68
2023-02-14T08:12:37.275Z,4.79
2023-02-14T08:15:22.374Z,4.89
2023-02-14T08:17:48.931Z,5.05
2023-02-14T08:20:15.396Z,5.14
2023-02-14T08:22:41.907Z,5.19
2023-02-14T08:25:08.488Z,5.34
2023-02-14T08:27:34.961Z,5.45
2023-02-14T08:30:01.529Z,5.58
2023-02-14T08:32:28.130Z,5.73
2023-02-14T08:34:54.690Z,5.85
2023-02-14T08:37:21.148Z,5.98
2023-02-14T08:39:47.906Z,5.93
2023-02-14T08:42:14.640Z,5.79
2023-02-14T08:44:41.116Z,5.94
2023-02-14T08:47:07.776Z,5.79
2023-02-14T08:49:34.346Z,6.00
2023-02-14T08:52:00.855Z,6.11
2023-02-14T08:54:27.337Z,6.19
2023-02-14T08:56:53.859Z,6.33
2023-02-14T08:59:20.341Z,6.33
2023-02-14T09:01:46.873Z,6.38
2023-02-14T09:04:13.506Z,6.33
2023-02-14T09:06:40.061Z,6.40
2023-02-14T09:09:06.760Z,6.42
2023-02-14T09:11:33.413Z,6.42
2023-02-14T09:13:59.968Z,6.33
2023-02-14T09:16:27.072Z,6.33
2023-02-14T09:18:54.869Z,6.34
2023-02-14T09:21:23.864Z,6.23
2023-02-14T09:23:50.400Z,6.45
2023-02-14T09:26:16.965Z,6.65
2023-02-14T09:28:43.494Z,6.81
2023-02-14T09:31:13.065Z,6.93
2023-02-14T09:33:39.775Z,7.13
2023-02-14T09:36:12.767Z,7.36
2023-02-14T09:38:39.285Z,7.51
2023-02-14T09:41:07.272Z,7.59
2023-02-14T09:43:44.216Z,7.69
2023-02-14T09:46:12.158Z,7.75
2023-02-14T09:48:41.334Z,7.92
2023-02-14T09:51:11.730Z,8.06
2023-02-14T09:53:43.833Z,8.07
2023-02-14T09:56:22.724Z,8.12
2023-02-14T09:59:00.962Z,8.24
2023-02-14T10:01:46.257Z,8.36
2023-02-14T10:04:27.336Z,8.39
2023-02-14T10:07:20.166Z,8.09
2023-02-14T10:09:55.952Z,7.77
2023-02-14T10:12:46.126Z,7.85
2023-02-14T10:15:54.853Z,7.87
2023-02-14T10:18:23.803Z,8.12
2023-02-14T10:20:54.400Z,8.30
2023-02-14T10:24:05.793Z,8.46
2023-02-14T10:26:39.957Z,8.66
2023-02-14T10:29:08.418Z,8.84
2023-02-14T10:31:43.921Z,8.95
2023-02-14T10:34:25.334Z,9.03
2023-02-14T10:37:25.461Z,9.25
2023-02-14T10:40:15.465Z,9.14
2023-02-14T10:43:06.419Z,9.16
2023-02-14T10:45:41.857Z,9.28
2023-02-14T10:48:17.836Z,9.35
2023-02-14T10:51:00.460Z,9.40
2023-02-14T10:53:49.948Z,9.58
2023-02-14T10:56:23.457Z,9.61
2023-02-14T10:58:49.956Z,9.19
2023-02-14T11:01:17.765Z,9.49
2023-02-14T11:03:51.855Z,9.69
2023-02-14T11:06:18.396Z,9.79
2023-02-14T11:08:44.877Z,9.75
2023-02-14T11:11:18.485Z,9.89
2023-02-14T11:13:45.112Z,9.94
2023-02-14T11:16:13.221Z,10.13
2023-02-14T11:18:40.842Z,10.21
2023-02-14T11:21:17.595Z,10.32
2023-02-14T11:23:45.475Z,10.48
2023-02-14T11:26:17.707Z,10.53
2023-02-14T11:29:04.209Z,10.45
2023-02-14T11:31:37.821Z,10.38
2023-02-14T11:34:07.198Z,10.35
2023-02-14T11:36:40.196Z,10.48
2023-02-14T11:39:16.504Z,10.77
2023-02-14T11:41:47.985Z,10.84
2023-02-14T11:44:22.518Z,10.98
2023-02-14T11:46:53.365Z,11.02
2023-02-14T11:49:34.431Z,10.92
2023-02-14T11:52:10.296Z,10.89
2023-02-14T11:54:40.536Z,11.04
2023-02-14T11:57:13.220Z,11.11
2023-02-14T11:59:47.648Z,10.98
2023-02-14T12:02:39.808Z,10.94
2023-02-14T12:05:17.673Z,11.13
2023-02-14T12:07:44.846Z,11.26
2023-02-14T12:10:17.294Z,11.15
2023-02-14T12:13:09.160Z,10.68
2023-02-14T12:15:59.083Z,11.32
2023-02-14T12:18:35.777Z,10.86
2023-02-14T12:21:27.052Z,11.25
2023-02-14T12:24:18.390Z,11.30
2023-02-14T12:27:05.143Z,11.21
2023-02-14T12:29:38.877Z,11.45
2023-02-14T12:32:18.801Z,11.28
2023-02-14T12:34:45.301Z,11.61
2023-02-14T12:37:23.611Z,11.17
2023-02-14T12:39:57.861Z,11.23
2023-02-14T12:42:47.120Z,11.14
2023-02-14T12:45:27.563Z,11.62
2023-02-14T12:47:53.877Z,11.67
2023-02-14T12:50:42.029Z,11.34
2023-02-14T12:53:50.076Z,11.63
2023-02-14T12:56:35.232Z,11.93
2023-02-14T12:59:38.595Z,12.12
2023-02-14T13:02:32.377Z,12.40
2023-02-14T13:05:05.688Z,12.58
2023-02-14T13:07:56.366Z,12.22
2023-02-14T13:10:45.587Z,12.22
2023-02-14T13:13:27.494Z,12.67
2023-02-14T13:16:23.358Z,12.94
2023-02-14T13:18:56.887Z,12.99
2023-02-14T13:21:25.255Z,13.31
2023-02-14T13:23:55.004Z,13.44
2023-02-14T13:26:31.115Z,13.41
2023-02-14T13:29:01.206Z,13.51
2023-02-14T13:31:27.853Z,13.70
2023-02-14T13:33:57.449Z,13.63
2023-02-14T13:36:24.428Z,13.46
2023-02-14T13:38:56.353Z,13.42
2023-02-14T13:41:22.972Z,13.37
2023-02-14T13:44:01.549Z,13.06
2023-02-14T13:46:34.022Z,12.48
2023-02-14T13:49:26.872Z,12.06
2023-02-14T13:51:55.225Z,11.48
2023-02-14T13:54:22.342Z,11.22
2023-02-14T13:56:48.847Z,10.93
2023-02-14T13:59:47.780Z,10.81
2023-02-14T14:02:28.322Z,10.89
2023-02-14T14:04:56.369Z,10.85
2023-02-14T14:07:30.189Z,10.64
2023-02-14T14:10:00.708Z,10.35
2023-02-14T14:12:27.076Z,10.11
2023-02-14T14:15:05.926Z,9.75
2023-02-14T14:17:37.134Z,9.58
2023-02-14T14:20:24.621Z,9.39
2023-02-14T14:22:55.085Z,9.32
2023-02-14T14:25:41.561Z,9.28
2023-02-14T14:28:21.818Z,9.05
2023-02-14T14:30:48.345Z,8.78
2023-02-14T14:33:37.745Z,8.81
2023-02-14T14:36:08.317Z,8.82
2023-02-14T14:38:35.292Z,8.85
2023-02-14T14:41:01.808Z,8.79
2023-02-14T14:43:34.825Z,8.70
2023-02-14T14:46:02.559Z,8.63
2023-02-14T14:48:31.537Z,8.74
2023-02-14T14:50:58.226Z,8.90
2023-02-14T14:53:31.632Z,8.92
2023-02-14T14:55:58.585Z,8.88
2023-02-14T14:58:37.089Z,8.86
2023-02-14T15:01:04.137Z,8.54
2023-02-14T15:03:30.686Z,8.57
2023-02-14T15:06:17.729Z,8.34
2023-02-14T15:08:44.322Z,8.15
2023-02-14T15:11:46.470Z,7.85
2023-02-14T15:14:18.084Z,7.73
2023-02-14T15:16:52.279Z,7.42
2023-02-14T15:19:31.417Z,7.26
2023-02-14T15:21:57.895Z,7.15
2023-02-14T15:24:24.384Z,7.36
2023-02-14T15:26:53.366Z,7.68
2023-02-14T15:29:25.270Z,7.66
2023-02-14T15:31:51.967Z,7.62
2023-02-14T15:34:24.828Z,7.37
2023-02-14T15:36:53.883Z,7.15
2023-02-14T15:39:21.316Z,7.20
2023-02-14T15:41:48.334Z,7.24
2023-02-14T15:44:19.930Z,7.14
2023-02-14T15:46:46.654Z,7.12
2023-02-14T15:49:16.728Z,7.19
2023-02-14T15:51:43.224Z,7.12
2023-02-14T15:54:21.191Z,6.87
2023-02-14T15:56:49.582Z,6.76
2023-02-14T15:59:31.634Z,6.62
2023-02-14T16:02:36.205Z,6.67
2023-02-14T16:05:19.379Z,6.66
2023-02-14T16:08:05.657Z,6.60
2023-02-14T16:10:36.198Z,6.66
2023-02-14T16:13:04.619Z,6.58
2023-02-14T16:15:32.800Z,6.85
2023-02-14T16:18:00.897Z,6.95
2023-02-14T16:20:40.117Z,6.91
2023-02-14T16:23:16.402Z,6.77
2023-02-14T16:25:42.848Z,6.76
2023-02-14T16:28:09.331Z,6.84
2023-02-14T16:30:36.642Z,6.81
2023-02-14T16:33:03.128Z,6.88
2023-02-14T16:35:30.551Z,6.82
2023-02-14T16:37:57.105Z,6.82
2023-02-14T16:40:26.087Z,6.61
2023-02-14T16:42:52.571Z,6.67
2023-02-14T16:45:19.193Z,6.54
2023-02-14T16:47:46.688Z,6.42
2023-02-14T16:50:13.149Z,6.10
2023-02-14T16:52:39.678Z,5.89
2023-02-14T16:55:06.936Z,5.43
2023-02-14T16:57:36.893Z,5.06
2023-02-14T17:00:03.658Z,4.85
2023-02-14T17:02:30.344Z,4.86
2023-02-14T17:04:57.037Z,4.71
2023-02-14T17:07:23.507Z,4.86
2023-02-14T17:09:53.336Z,5.04
2023-02-14T17:12:21.650Z,4.93
2023-02-14T17:14:49.975Z,4.78
2023-02-14T17:17:16.522Z,5.08
2023-02-14T17:19:43.068Z,5.37
2023-02-14T17:22:09.737Z,5.56
2023-02-14T17:24:36.207Z,5.59
2023-02-14T17:27:03.002Z,5.49
2023-02-14T17:29:29.480Z,5.51
2023-02-14T17:31:56.003Z,5.60
2023-02-14T17:34:22.632Z,5.73
2023-02-14T17:36:49.176Z,5.87
2023-02-14T17:39:17.985Z,6.13
2023-02-14T17:41:44.448Z,6.14
2023-02-14T17:44:10.971Z,6.09
2023-02-14T17:46:37.638Z,6.26
2023-02-14T17:49:04.176Z,6.49
2023-02-14T17:51:30.629Z,6.50
2023-02-14T17:53:58.897Z,6.40
2023-02-14T17:56:25.692Z,6.37
2023-02-14T17:58:52.742Z,6.69
2023-02-14T18:01:25.043Z,6.83
2023-02-14T18:03:52.826Z,6.88
2023-02-14T18:06:19.489Z,6.99
2023-02-14T18:08:49.159Z,7.00
2023-02-14T18:11:15.898Z,7.02
2023-02-14T18:13:42.489Z,7.01
2023-02-14T18:16:10.790Z,6.97
2023-02-14T18:18:37.581Z,6.89
2023-02-14T18:21:06.840Z,6.89
2023-02-14T18:23:33.854Z,6.95
2023-02-14T18:26:01.800Z,6.90
2023-02-14T18:28:28.303Z,6.86
2023-02-14T18:30:54.810Z,6.79
2023-02-14T18:33:21.302Z,6.75
2023-02-14T18:35:47.786Z,6.74
2023-02-14T18:38:14.244Z,6.63
2023-02-14T18:40:41.391Z,6.69
2023-02-14T18:43:07.927Z,6.58
2023-02-14T18:45:38.143Z,6.51
2023-02-14T18:48:04.587Z,6.40
2023-02-14T18:50:31.156Z,6.28
2023-02-14T18:52:57.606Z,6.13
2023-02-14T18:55:24.772Z,6.13
2023-02-14T18:57:51.301Z,6.11
2023-02-14T19:00:18.104Z,6.00
2023-02-14T19:02:44.577Z,5.88
2023-02-14T19:05:11.038Z,5.94
2023-02-14T19:07:37.501Z,5.88
2023-02-14T19:10:04.660Z,5.86
2023-02-14T19:12:33.231Z,5.94
2023-02-14T19:15:00.503Z,5.91
2023-02-14T19:17:28.270Z,5.86
2023-02-14T19:19:55.370Z,5.96
2023-02-14T19:22:22.521Z,6.02
2023-02-14T19:24:49.327Z,6.06
2023-02-14T19:27:16.870Z,6.07
2023-02-14T19:29:43.624Z,6.12
2023-02-14T19:32:10.409Z,6.12
2023-02-14T19:34:38.359Z,6.07
2023-02-14T19:37:04.932Z,6.02
2023-02-14T19:39:31.478Z,5.97
2023-02-14T19:41:58.086Z,5.90
2023-02-14T19:44:25.816Z,5.78
2023-02-14T19:46:54.313Z,5.87
2023-02-14T19:49:20.855Z,5.81
2023-02-14T19:51:48.099Z,5.92
2023-02-14T19:54:15.388Z,5.95
2023-02-14T19:56:43.309Z,5.92
2023-02-14T19:59:10.181Z,5.92
2023-02-14T20:01:37.824Z,5.87
2023-02-14T20:04:10.162Z,5.86
2023-02-14T20:06:37.558Z,5.70
2023-02-14T20:09:04.899Z,5.68
2023-02-14T20:11:40.050Z,5.67
2023-02-14T20:14:06.603Z,5.60
2023-02-14T20:16:34.401Z,5.55
2023-02-14T20:19:01.777Z,5.37
2023-02-14T20:21:28.474Z,5.18
2023-02-14T20:24:00.670Z,5.20
2023-02-14T20:26:30.319Z,5.14
2023-02-14T20:28:59.096Z,4.85
2023-02-14T20:31:25.653Z,4.68
2023-02-14T20:33:52.822Z,4.57
2023-02-14T20:36:19.863Z,4.63
2023-02-14T20:38:46.557Z,4.66
2023-02-14T20:41:13.490Z,4.60
2023-02-14T20:43:40.233Z,4.66
2023-02-14T20:46:06.826Z,4.92
2023-02-14T20:48:33.918Z,4.89
2023-02-14T20:51:11.230Z,5.14
2023-02-14T20:53:38.248Z,5.07
2023-02-14T20:56:04.782Z,4.97
2023-02-14T20:58:31.677Z,4.96
2023-02-14T21:01:25.252Z,4.94
2023-02-14T21:03:52.532Z,4.81
2023-02-14T21:06:27.586Z,4.69
2023-02-14T21:08:54.117Z,4.64
2023-02-14T21:11:20.975Z,4.50
2023-02-14T21:13:47.758Z,4.48
2023-02-14T21:16:16.273Z,4.35
2023-02-14T21:18:48.565Z,4.43
2023-02-14T21:21:19.875Z,4.44
2023-02-14T21:23:48.438Z,4.49
2023-02-14T21:26:14.950Z,4.51
2023-02-14T21:28:41.425Z,4.58
2023-02-14T21:31:11.828Z,4.46
2023-02-14T21:33:38.646Z,4.44
2023-02-14T21:36:09.282Z,4.51
2023-02-14T21:38:35.824Z,4.44
2023-02-14T21:41:12.602Z,4.32
2023-02-14T21:43:40.282Z,4.30
2023-02-14T21:46:08.022Z,4.09
2023-02-14T21:48:53.288Z,4.02
2023-02-14T21:51:19.963Z,3.79
2023-02-14T21:53:46.438Z,3.65
2023-02-14T21:56:16.425Z,3.36
2023-02-14T21:58:44.263Z,3.11
2023-02-14T22:01:41.151Z,3.23
2023-02-14T22:04:09.166Z,3.08
2023-02-14T22:06:37.216Z,2.93
2023-02-14T22:09:03.857Z,2.76
2023-02-14T22:11:30.403Z,2.55
2023-02-14T22:13:56.926Z,2.60
2023-02-14T22:16:24.490Z,2.73
2023-02-14T22:18:50.998Z,2.79
2023-02-14T22:21:19.984Z,2.87
2023-02-14T22:23:46.892Z,3.09
2023-02-14T22:26:21.500Z,3.45
2023-02-14T22:28:48.288Z,3.85
2023-02-14T22:31:16.257Z,4.13
2023-02-14T22:33:43.010Z,4.12
2023-02-14T22:36:09.517Z,4.14
2023-02-14T22:38:36.073Z,3.97
2023-02-14T22:41:09.895Z,3.79
2023-02-14T22:43:36.464Z,3.19
2023-02-14T22:46:07.369Z,3.05
2023-02-14T22:48:34.307Z,2.81
2023-02-14T22:51:11.960Z,2.52
2023-02-14T22:53:38.865Z,2.41
2023-02-14T22:56:35.728Z,2.28
2023-02-14T22:59:05.313Z,2.25
2023-02-14T23:01:32.520Z,2.12
2023-02-14T23:03:59.651Z,2.01
2023-02-14T23:06:27.002Z,1.84
2023-02-14T23:08:53.769Z,1.89
2023-02-14T23:11:21.763Z,1.67
2023-02-14T23:14:07.061Z,1.62
2023-02-14T23:16:52.376Z,1.53
2023-02-14T23:19:39.188Z,1.49
2023-02-14T23:22:25.596Z,1.33
2023-02-14T23:24:53.297Z,1.46
2023-02-14T23:27:24.586Z,1.39
2023-02-14T23:29:51.074Z,1.30
2023-02-14T23:32:17.615Z,1.27
2023-02-14T23:34:44.258Z,1.42
2023-02-14T23:37:10.965Z,1.36
2023-02-14T23:39:37.708Z,1.40
2023-02-14T23:42:05.384Z,1.48
2023-02-14T23:44:33.236Z,1.33
2023-02-14T23:47:01.077Z,1.24
2023-02-14T23:49:27.789Z,1.23
2023-02-14T23:51:54.861Z,1.25
2023-02-14T23:54:21.839Z,1.23
2023-02-14T23:56:48.472Z,1.17
2023-02-14T23:59:14.991Z,1.25
